UAL154 PTSA-PTPN
Flight info
| Callsign | UAL154 |
|---|---|
| Flight time | 0h 55m |
| Altitude | 32000 |
| Route | UKS A222 AXTEN |
| Aircraft | B738/M-SDE2E3FGHIRWXY/LB1 |
Departure
| Time | 2026-04-19 03:51 |
|---|---|
| Airport | Kosrae International Airport (PTSA) |
Arrival
| Time | 2026-04-19 04:46 |
|---|---|
| Airport | Pohnpei International Airport (PTPN) |
| Time | Latitude | Longitude | Altitude | Speed | Heading |
|---|---|---|---|---|---|
| 2026-04-19 03:37 | 5.35342 | 162.95602 | 28 ft | 0 kts | 55° |
| 2026-04-19 03:45 | 5.35342 | 162.95604 | 28 ft | 0 kts | 52° |
| 2026-04-19 03:45 | 5.35345 | 162.95604 | 28 ft | 0 kts | 7° |
| 2026-04-19 03:45 | 5.35359 | 162.95596 | 28 ft | 3 kts | 321° |
| 2026-04-19 03:45 | 5.35379 | 162.95578 | 29 ft | 4 kts | 316° |
| 2026-04-19 03:46 | 5.35407 | 162.95552 | 29 ft | 6 kts | 319° |
| 2026-04-19 03:46 | 5.35409 | 162.95549 | 29 ft | 6 kts | 318° |
| 2026-04-19 03:46 | 5.35423 | 162.95537 | 29 ft | 6 kts | 318° |
| 2026-04-19 03:46 | 5.35454 | 162.95497 | 29 ft | 8 kts | 284° |
| 2026-04-19 03:47 | 5.35432 | 162.95441 | 29 ft | 9 kts | 235° |
| 2026-04-19 03:47 | 5.35395 | 162.95389 | 29 ft | 9 kts | 234° |
| 2026-04-19 03:47 | 5.35359 | 162.95338 | 29 ft | 7 kts | 234° |
| 2026-04-19 03:47 | 5.35328 | 162.95296 | 29 ft | 8 kts | 233° |
| 2026-04-19 03:48 | 5.35296 | 162.95258 | 29 ft | 5 kts | 217° |
| 2026-04-19 03:48 | 5.35265 | 162.95238 | 29 ft | 6 kts | 220° |
| 2026-04-19 03:48 | 5.35242 | 162.95212 | 30 ft | 2 kts | 234° |
| 2026-04-19 03:49 | 5.35241 | 162.95206 | 30 ft | 0 kts | 278° |
| 2026-04-19 03:49 | 5.35243 | 162.95203 | 30 ft | 1 kts | 308° |
| 2026-04-19 03:49 | 5.35263 | 162.95201 | 30 ft | 3 kts | 19° |
| 2026-04-19 03:49 | 5.35275 | 162.95213 | 29 ft | 0 kts | 55° |
| 2026-04-19 03:50 | 5.35298 | 162.95248 | 29 ft | 30 kts | 57° |
| 2026-04-19 03:50 | 5.35597 | 162.95689 | 30 ft | 118 kts | 56° |
| 2026-04-19 03:51 | 5.36191 | 162.96498 | 266 ft | 151 kts | 47° |
| 2026-04-19 03:51 | 5.36455 | 162.96730 | 606 ft | 141 kts | 41° |
| 2026-04-19 03:51 | 5.36916 | 162.96994 | 859 ft | 149 kts | 23° |
| 2026-04-19 03:51 | 5.38021 | 162.97090 | 1442 ft | 180 kts | 350° |
| 2026-04-19 03:52 | 5.39176 | 162.96402 | 2035 ft | 203 kts | 323° |
| 2026-04-19 03:52 | 5.40428 | 162.95726 | 2638 ft | 210 kts | 354° |
| 2026-04-19 03:52 | 5.41854 | 162.95931 | 3227 ft | 217 kts | 24° |
| 2026-04-19 03:52 | 5.43384 | 162.96335 | 3837 ft | 240 kts | 8° |
| 2026-04-19 03:53 | 5.45105 | 162.96104 | 4523 ft | 263 kts | 342° |
| 2026-04-19 03:53 | 5.46686 | 162.95077 | 5238 ft | 284 kts | 316° |
| 2026-04-19 03:53 | 5.47762 | 162.93384 | 6137 ft | 294 kts | 291° |
| 2026-04-19 03:53 | 5.47965 | 162.91342 | 7081 ft | 300 kts | 261° |
| 2026-04-19 03:54 | 5.47256 | 162.89374 | 7984 ft | 303 kts | 242° |
| 2026-04-19 03:54 | 5.46242 | 162.87514 | 8837 ft | 308 kts | 240° |
| 2026-04-19 03:54 | 5.45217 | 162.85626 | 9667 ft | 314 kts | 242° |
| 2026-04-19 03:54 | 5.44215 | 162.83676 | 10508 ft | 319 kts | 243° |
| 2026-04-19 03:55 | 5.43202 | 162.81613 | 11069 ft | 334 kts | 245° |
| 2026-04-19 03:55 | 5.42440 | 162.79367 | 11538 ft | 350 kts | 261° |
| 2026-04-19 03:55 | 5.42427 | 162.76958 | 12304 ft | 352 kts | 280° |
| 2026-04-19 03:55 | 5.42978 | 162.74579 | 13126 ft | 353 kts | 289° |
| 2026-04-19 03:56 | 5.43801 | 162.72270 | 13907 ft | 355 kts | 293° |
| 2026-04-19 03:56 | 5.44709 | 162.69977 | 14622 ft | 360 kts | 294° |
| 2026-04-19 03:56 | 5.45631 | 162.67625 | 15357 ft | 364 kts | 293° |
| 2026-04-19 03:56 | 5.46529 | 162.65231 | 16095 ft | 367 kts | 292° |
| 2026-04-19 03:57 | 5.47399 | 162.62820 | 16783 ft | 371 kts | 291° |
| 2026-04-19 03:57 | 5.48257 | 162.60378 | 17431 ft | 375 kts | 291° |
| 2026-04-19 03:57 | 5.49118 | 162.57895 | 18093 ft | 379 kts | 291° |
| 2026-04-19 03:57 | 5.49980 | 162.55397 | 18710 ft | 383 kts | 291° |
| 2026-04-19 03:58 | 5.50845 | 162.52885 | 19315 ft | 387 kts | 291° |
| 2026-04-19 03:58 | 5.51733 | 162.50311 | 19922 ft | 390 kts | 291° |
| 2026-04-19 03:58 | 5.52620 | 162.47743 | 20468 ft | 395 kts | 291° |
| 2026-04-19 03:58 | 5.53531 | 162.45106 | 21026 ft | 399 kts | 291° |
| 2026-04-19 03:59 | 5.54432 | 162.42496 | 21606 ft | 401 kts | 291° |
| 2026-04-19 03:59 | 5.55350 | 162.39836 | 22103 ft | 406 kts | 291° |
| 2026-04-19 03:59 | 5.56269 | 162.37175 | 22635 ft | 409 kts | 291° |
| 2026-04-19 03:59 | 5.57211 | 162.34445 | 23143 ft | 413 kts | 291° |
| 2026-04-19 04:00 | 5.58139 | 162.31758 | 23667 ft | 415 kts | 291° |
| 2026-04-19 04:00 | 5.59096 | 162.28986 | 24132 ft | 419 kts | 290° |
| 2026-04-19 04:00 | 5.60046 | 162.26234 | 24582 ft | 423 kts | 290° |
| 2026-04-19 04:00 | 5.61008 | 162.23450 | 25050 ft | 426 kts | 290° |
| 2026-04-19 04:01 | 5.61981 | 162.20625 | 25536 ft | 429 kts | 290° |
| 2026-04-19 04:01 | 5.63945 | 162.14925 | 26407 ft | 436 kts | 290° |
| 2026-04-19 04:01 | 5.64925 | 162.12080 | 26841 ft | 438 kts | 290° |
| 2026-04-19 04:02 | 5.65932 | 162.09163 | 27218 ft | 442 kts | 290° |
| 2026-04-19 04:02 | 5.66939 | 162.06239 | 27652 ft | 445 kts | 290° |
| 2026-04-19 04:02 | 5.67949 | 162.03308 | 28038 ft | 448 kts | 290° |
| 2026-04-19 04:02 | 5.68976 | 162.00326 | 28465 ft | 450 kts | 290° |
| 2026-04-19 04:03 | 5.69995 | 161.97368 | 28863 ft | 452 kts | 290° |
| 2026-04-19 04:03 | 5.71029 | 161.94373 | 29261 ft | 455 kts | 290° |
| 2026-04-19 04:03 | 5.72058 | 161.91389 | 29556 ft | 460 kts | 290° |
| 2026-04-19 04:03 | 5.73116 | 161.88321 | 29979 ft | 462 kts | 290° |
| 2026-04-19 04:04 | 5.74158 | 161.85295 | 30336 ft | 465 kts | 290° |
| 2026-04-19 04:04 | 5.75224 | 161.82199 | 30649 ft | 469 kts | 290° |
| 2026-04-19 04:04 | 5.76282 | 161.79118 | 31017 ft | 471 kts | 290° |
| 2026-04-19 04:04 | 5.77352 | 161.76009 | 31519 ft | 470 kts | 290° |
| 2026-04-19 04:05 | 5.78410 | 161.72937 | 31841 ft | 471 kts | 289° |
| 2026-04-19 04:05 | 5.79477 | 161.69832 | 31845 ft | 465 kts | 289° |
| 2026-04-19 04:05 | 5.81562 | 161.63768 | 31846 ft | 458 kts | 289° |
| 2026-04-19 04:06 | 5.83650 | 161.57689 | 31836 ft | 461 kts | 289° |
| 2026-04-19 04:06 | 5.85731 | 161.51634 | 31836 ft | 460 kts | 290° |
| 2026-04-19 04:07 | 5.87858 | 161.45549 | 31854 ft | 460 kts | 290° |
| 2026-04-19 04:07 | 5.89908 | 161.39500 | 31856 ft | 460 kts | 289° |
| 2026-04-19 04:08 | 5.91967 | 161.33441 | 31856 ft | 460 kts | 289° |
| 2026-04-19 04:08 | 5.94062 | 161.27339 | 31853 ft | 461 kts | 289° |
| 2026-04-19 04:09 | 5.96138 | 161.21286 | 31846 ft | 461 kts | 289° |
| 2026-04-19 04:09 | 5.98213 | 161.15222 | 31843 ft | 459 kts | 289° |
| 2026-04-19 04:10 | 6.00277 | 161.09181 | 31843 ft | 459 kts | 289° |
| 2026-04-19 04:10 | 6.02348 | 161.03124 | 31843 ft | 460 kts | 289° |
| 2026-04-19 04:11 | 6.04420 | 160.97060 | 31843 ft | 461 kts | 289° |
| 2026-04-19 04:11 | 6.06488 | 160.91002 | 31843 ft | 460 kts | 289° |
| 2026-04-19 04:12 | 6.08571 | 160.84901 | 31843 ft | 460 kts | 289° |
| 2026-04-19 04:12 | 6.10644 | 160.78830 | 31844 ft | 460 kts | 289° |
| 2026-04-19 04:13 | 6.12704 | 160.72795 | 31842 ft | 460 kts | 289° |
| 2026-04-19 04:13 | 6.14776 | 160.66722 | 31843 ft | 460 kts | 289° |
| 2026-04-19 04:14 | 6.16852 | 160.60634 | 31843 ft | 461 kts | 289° |
| 2026-04-19 04:14 | 6.18931 | 160.54535 | 31844 ft | 460 kts | 289° |
| 2026-04-19 04:15 | 6.21005 | 160.48453 | 31843 ft | 461 kts | 289° |
| 2026-04-19 04:15 | 6.23075 | 160.42380 | 31842 ft | 460 kts | 289° |
| 2026-04-19 04:16 | 6.25155 | 160.36275 | 31844 ft | 461 kts | 289° |
| 2026-04-19 04:16 | 6.27229 | 160.30183 | 31844 ft | 461 kts | 289° |
| 2026-04-19 04:17 | 6.29298 | 160.24106 | 31843 ft | 461 kts | 289° |
| 2026-04-19 04:17 | 6.31362 | 160.18041 | 31845 ft | 461 kts | 289° |
| 2026-04-19 04:18 | 6.33426 | 160.11974 | 31845 ft | 461 kts | 289° |
| 2026-04-19 04:18 | 6.35494 | 160.05890 | 31845 ft | 461 kts | 289° |
| 2026-04-19 04:19 | 6.37565 | 159.99795 | 31844 ft | 460 kts | 289° |
| 2026-04-19 04:19 | 6.39624 | 159.93736 | 31847 ft | 460 kts | 289° |
| 2026-04-19 04:20 | 6.41688 | 159.87657 | 31849 ft | 460 kts | 289° |
| 2026-04-19 04:20 | 6.43753 | 159.81572 | 31857 ft | 459 kts | 289° |
| 2026-04-19 04:21 | 6.45820 | 159.75479 | 31855 ft | 459 kts | 289° |
| 2026-04-19 04:21 | 6.47874 | 159.69424 | 31843 ft | 460 kts | 289° |
| 2026-04-19 04:22 | 6.49942 | 159.63321 | 31824 ft | 460 kts | 289° |
| 2026-04-19 04:22 | 6.52012 | 159.57210 | 31828 ft | 461 kts | 289° |
| 2026-04-19 04:23 | 6.54069 | 159.51137 | 31833 ft | 461 kts | 289° |
| 2026-04-19 04:23 | 6.56139 | 159.45024 | 31835 ft | 461 kts | 289° |
| 2026-04-19 04:24 | 6.57166 | 159.41991 | 31662 ft | 460 kts | 289° |
| 2026-04-19 04:24 | 6.58201 | 159.38930 | 31406 ft | 455 kts | 289° |
| 2026-04-19 04:24 | 6.59212 | 159.35939 | 31155 ft | 450 kts | 289° |
| 2026-04-19 04:24 | 6.60210 | 159.32988 | 30904 ft | 447 kts | 289° |
| 2026-04-19 04:25 | 6.61211 | 159.30026 | 30651 ft | 447 kts | 289° |
| 2026-04-19 04:25 | 6.62214 | 159.27060 | 30307 ft | 445 kts | 289° |
| 2026-04-19 04:25 | 6.63203 | 159.24132 | 29818 ft | 441 kts | 289° |
| 2026-04-19 04:25 | 6.64186 | 159.21222 | 29284 ft | 439 kts | 289° |
| 2026-04-19 04:26 | 6.65166 | 159.18321 | 28748 ft | 437 kts | 289° |
| 2026-04-19 04:26 | 6.66145 | 159.15420 | 28187 ft | 434 kts | 289° |
| 2026-04-19 04:26 | 6.67117 | 159.12541 | 27669 ft | 432 kts | 289° |
| 2026-04-19 04:26 | 6.68070 | 159.09720 | 27145 ft | 429 kts | 290° |
| 2026-04-19 04:27 | 6.69028 | 159.06880 | 26600 ft | 427 kts | 290° |
| 2026-04-19 04:27 | 6.69981 | 159.04053 | 26083 ft | 424 kts | 290° |
| 2026-04-19 04:27 | 6.70921 | 159.01265 | 25560 ft | 421 kts | 290° |
| 2026-04-19 04:27 | 6.71852 | 158.98503 | 25016 ft | 419 kts | 290° |
| 2026-04-19 04:28 | 6.72784 | 158.95740 | 24490 ft | 415 kts | 290° |
| 2026-04-19 04:28 | 6.73702 | 158.93016 | 23979 ft | 411 kts | 291° |
| 2026-04-19 04:28 | 6.74620 | 158.90289 | 23468 ft | 407 kts | 291° |
| 2026-04-19 04:28 | 6.75513 | 158.87636 | 22971 ft | 403 kts | 291° |
| 2026-04-19 04:29 | 6.76407 | 158.84979 | 22458 ft | 399 kts | 291° |
| 2026-04-19 04:29 | 6.77294 | 158.82344 | 21967 ft | 395 kts | 291° |
| 2026-04-19 04:29 | 6.78171 | 158.79741 | 21476 ft | 392 kts | 291° |
| 2026-04-19 04:29 | 6.79068 | 158.77190 | 20934 ft | 390 kts | 294° |
| 2026-04-19 04:30 | 6.80222 | 158.74738 | 20386 ft | 386 kts | 304° |
| 2026-04-19 04:30 | 6.81876 | 158.72647 | 19883 ft | 378 kts | 319° |
| 2026-04-19 04:30 | 6.83911 | 158.71045 | 19404 ft | 371 kts | 330° |
| 2026-04-19 04:30 | 6.86145 | 158.69780 | 19081 ft | 360 kts | 336° |
| 2026-04-19 04:31 | 6.88465 | 158.68845 | 18635 ft | 354 kts | 347° |
| 2026-04-19 04:31 | 6.90879 | 158.68472 | 18130 ft | 349 kts | 360° |
| 2026-04-19 04:31 | 6.93291 | 158.68494 | 17565 ft | 348 kts | 5° |
| 2026-04-19 04:31 | 6.95724 | 158.68651 | 17060 ft | 346 kts | 6° |
| 2026-04-19 04:32 | 6.98139 | 158.68848 | 16589 ft | 344 kts | 7° |
| 2026-04-19 04:32 | 7.00523 | 158.69031 | 16131 ft | 341 kts | 5° |
| 2026-04-19 04:32 | 7.02873 | 158.68957 | 15672 ft | 341 kts | 352° |
| 2026-04-19 04:32 | 7.05100 | 158.68094 | 15215 ft | 343 kts | 328° |
| 2026-04-19 04:33 | 7.06826 | 158.66455 | 14765 ft | 344 kts | 308° |
| 2026-04-19 04:33 | 7.07966 | 158.64329 | 14302 ft | 344 kts | 292° |
| 2026-04-19 04:33 | 7.08623 | 158.62045 | 13844 ft | 343 kts | 282° |
| 2026-04-19 04:33 | 7.08959 | 158.59663 | 13373 ft | 342 kts | 276° |
| 2026-04-19 04:34 | 7.09152 | 158.57303 | 12912 ft | 341 kts | 274° |
| 2026-04-19 04:34 | 7.09316 | 158.54906 | 12446 ft | 339 kts | 274° |
| 2026-04-19 04:34 | 7.09490 | 158.52571 | 11992 ft | 337 kts | 275° |
| 2026-04-19 04:34 | 7.09688 | 158.50212 | 11537 ft | 335 kts | 275° |
| 2026-04-19 04:35 | 7.09899 | 158.47902 | 11087 ft | 333 kts | 275° |
| 2026-04-19 04:35 | 7.10118 | 158.45607 | 10639 ft | 331 kts | 276° |
| 2026-04-19 04:35 | 7.10342 | 158.43295 | 10202 ft | 328 kts | 276° |
| 2026-04-19 04:35 | 7.10560 | 158.41054 | 9963 ft | 318 kts | 275° |
| 2026-04-19 04:36 | 7.10770 | 158.38881 | 9785 ft | 307 kts | 275° |
| 2026-04-19 04:36 | 7.10977 | 158.36740 | 9377 ft | 305 kts | 275° |
| 2026-04-19 04:36 | 7.11181 | 158.34644 | 9012 ft | 303 kts | 275° |
| 2026-04-19 04:36 | 7.11390 | 158.32512 | 8661 ft | 299 kts | 275° |
| 2026-04-19 04:37 | 7.11593 | 158.30414 | 8285 ft | 297 kts | 275° |
| 2026-04-19 04:37 | 7.11792 | 158.28342 | 7924 ft | 294 kts | 275° |
| 2026-04-19 04:37 | 7.11904 | 158.26300 | 7565 ft | 291 kts | 271° |
| 2026-04-19 04:37 | 7.11934 | 158.24274 | 7236 ft | 289 kts | 270° |
| 2026-04-19 04:38 | 7.11935 | 158.22253 | 6843 ft | 287 kts | 270° |
| 2026-04-19 04:38 | 7.11933 | 158.20239 | 6510 ft | 285 kts | 269° |
| 2026-04-19 04:38 | 7.11933 | 158.18257 | 6161 ft | 284 kts | 270° |
| 2026-04-19 04:38 | 7.11939 | 158.16255 | 5804 ft | 283 kts | 270° |
| 2026-04-19 04:39 | 7.11948 | 158.14270 | 5433 ft | 282 kts | 270° |
| 2026-04-19 04:39 | 7.11959 | 158.12300 | 5154 ft | 278 kts | 271° |
| 2026-04-19 04:39 | 7.11968 | 158.10370 | 4904 ft | 280 kts | 270° |
| 2026-04-19 04:39 | 7.11975 | 158.08397 | 4338 ft | 286 kts | 271° |
| 2026-04-19 04:40 | 7.11938 | 158.06377 | 3719 ft | 290 kts | 265° |
| 2026-04-19 04:40 | 7.11464 | 158.04404 | 3119 ft | 292 kts | 246° |
| 2026-04-19 04:40 | 7.10375 | 158.02698 | 2635 ft | 287 kts | 227° |
| 2026-04-19 04:40 | 7.08909 | 158.01402 | 2317 ft | 276 kts | 212° |
| 2026-04-19 04:41 | 7.07233 | 158.00571 | 2272 ft | 253 kts | 194° |
| 2026-04-19 04:41 | 7.05583 | 158.00331 | 2278 ft | 231 kts | 176° |
| 2026-04-19 04:41 | 7.04019 | 158.00442 | 2293 ft | 217 kts | 167° |
| 2026-04-19 04:41 | 7.02584 | 158.00839 | 2279 ft | 212 kts | 151° |
| 2026-04-19 04:42 | 7.01342 | 158.01613 | 2266 ft | 209 kts | 138° |
| 2026-04-19 04:42 | 7.00267 | 158.02597 | 2258 ft | 207 kts | 129° |
| 2026-04-19 04:42 | 6.99409 | 158.03755 | 2248 ft | 202 kts | 114° |
| 2026-04-19 04:42 | 6.98896 | 158.05058 | 2227 ft | 196 kts | 103° |
| 2026-04-19 04:43 | 6.98646 | 158.06369 | 2210 ft | 181 kts | 93° |
| 2026-04-19 04:43 | 6.98588 | 158.07617 | 2200 ft | 177 kts | 89° |
| 2026-04-19 04:43 | 6.98581 | 158.08855 | 2043 ft | 179 kts | 89° |
| 2026-04-19 04:43 | 6.98576 | 158.10110 | 1846 ft | 177 kts | 89° |
| 2026-04-19 04:44 | 6.98567 | 158.11320 | 1669 ft | 169 kts | 89° |
| 2026-04-19 04:44 | 6.98560 | 158.12459 | 1480 ft | 162 kts | 88° |
| 2026-04-19 04:44 | 6.98555 | 158.13565 | 1328 ft | 150 kts | 88° |
| 2026-04-19 04:44 | 6.98556 | 158.14610 | 1152 ft | 145 kts | 88° |
| 2026-04-19 04:45 | 6.98552 | 158.15588 | 978 ft | 137 kts | 89° |
| 2026-04-19 04:45 | 6.98543 | 158.16563 | 794 ft | 139 kts | 88° |
| 2026-04-19 04:45 | 6.98542 | 158.17540 | 626 ft | 139 kts | 88° |
| 2026-04-19 04:45 | 6.98511 | 158.18509 | 464 ft | 140 kts | 90° |
| 2026-04-19 04:46 | 6.98503 | 158.19479 | 198 ft | 140 kts | 89° |
| 2026-04-19 04:46 | 6.98504 | 158.20442 | 31 ft | 130 kts | 89° |
| 2026-04-19 04:46 | 6.98509 | 158.21156 | 29 ft | 65 kts | 89° |
| 2026-04-19 04:46 | 6.98508 | 158.21429 | 30 ft | 21 kts | 90° |
| 2026-04-19 04:47 | 6.98515 | 158.21515 | 30 ft | 4 kts | 64° |
| 2026-04-19 04:47 | 6.98507 | 158.21532 | 29 ft | 2 kts | 193° |
| 2026-04-19 04:47 | 6.98502 | 158.21512 | 30 ft | 3 kts | 273° |
| 2026-04-19 04:47 | 6.98501 | 158.21477 | 30 ft | 9 kts | 268° |
| 2026-04-19 04:48 | 6.98499 | 158.21378 | 30 ft | 19 kts | 271° |
| 2026-04-19 04:48 | 6.98503 | 158.21233 | 30 ft | 20 kts | 272° |
| 2026-04-19 04:48 | 6.98507 | 158.21089 | 29 ft | 20 kts | 271° |
| 2026-04-19 04:48 | 6.98512 | 158.20947 | 27 ft | 20 kts | 272° |
| 2026-04-19 04:49 | 6.98519 | 158.20808 | 27 ft | 19 kts | 273° |
| 2026-04-19 04:49 | 6.98520 | 158.20673 | 26 ft | 18 kts | 268° |
| 2026-04-19 04:49 | 6.98516 | 158.20544 | 26 ft | 18 kts | 268° |
| 2026-04-19 04:49 | 6.98513 | 158.20422 | 26 ft | 16 kts | 269° |
| 2026-04-19 04:50 | 6.98463 | 158.20355 | 26 ft | 12 kts | 182° |
| 2026-04-19 04:50 | 6.98377 | 158.20360 | 26 ft | 11 kts | 177° |
| 2026-04-19 04:50 | 6.98303 | 158.20361 | 26 ft | 9 kts | 175° |
| 2026-04-19 04:50 | 6.98276 | 158.20395 | 26 ft | 4 kts | 91° |
| 2026-04-19 04:51 | 6.98272 | 158.20404 | 27 ft | 0 kts | 147° |
| 2026-04-19 04:51 | 6.98268 | 158.20403 | 26 ft | 0 kts | 217° |
| 2026-04-19 04:51 | 6.98268 | 158.20396 | 26 ft | 0 kts | 270° |